createdAt,value
2022-08-22T00:00:13.723Z,96149.38
2022-08-22T00:02:47.770Z,96081.22
2022-08-22T00:03:16.175Z,96154.09
2022-08-22T00:03:16.195Z,96130.53
2022-08-22T00:05:48.176Z,96141.72
2022-08-22T00:08:26.299Z,96145.88
2022-08-22T00:11:02.830Z,96145.06
2022-08-22T00:13:38.000Z,96149.19
2022-08-22T00:16:14.208Z,96136.63
2022-08-22T00:18:49.642Z,96142.59
2022-08-22T00:21:23.045Z,96144.22
2022-08-22T00:23:56.308Z,96143.44
2022-08-22T00:26:34.987Z,96148.78
2022-08-22T00:29:06.547Z,96150.03
2022-08-22T00:31:37.595Z,96148.78
2022-08-22T00:34:10.284Z,96143.81
2022-08-22T00:36:43.320Z,96147.53
2022-08-22T00:39:26.564Z,96142.19
2022-08-22T00:42:15.073Z,96148.78
2022-08-22T00:45:32.338Z,96146.72
2022-08-22T00:48:24.266Z,96142.56
2022-08-22T00:51:24.798Z,96148.75
2022-08-22T00:53:57.237Z,96140.91
2022-08-22T00:56:51.521Z,96152.88
2022-08-22T00:59:48.724Z,96151.03
2022-08-22T01:02:31.765Z,96154.53
2022-08-22T01:05:23.514Z,96150.97
2022-08-22T01:08:05.958Z,96146.25
2022-08-22T01:10:46.012Z,96147.06
2022-08-22T01:13:36.572Z,96147.25
2022-08-22T01:16:22.092Z,96142.50
2022-08-22T01:19:28.087Z,96146.22
2022-08-22T01:22:42.780Z,96133.84
2022-08-22T01:26:14.851Z,96139.22
2022-08-22T01:29:18.567Z,96133.81
2022-08-22T01:32:44.622Z,96134.63
2022-08-22T01:35:51.254Z,96142.84
2022-08-22T01:38:36.576Z,96141.41
2022-08-22T01:41:21.020Z,96139.75
2022-08-22T01:44:05.085Z,96139.97
2022-08-22T01:46:42.755Z,96139.94
2022-08-22T01:49:18.896Z,96133.69
2022-08-22T01:51:54.666Z,96141.50
2022-08-22T01:54:32.241Z,96139.84
2022-08-22T01:57:03.210Z,96132.78
2022-08-22T01:59:42.364Z,96137.13
2022-08-22T02:02:26.256Z,96141.94
2022-08-22T02:04:59.134Z,96141.09
2022-08-22T02:07:35.871Z,96142.94
2022-08-22T02:10:13.807Z,96139.00
2022-08-22T02:12:46.849Z,96145.16
2022-08-22T02:15:22.750Z,96140.63
2022-08-22T02:18:18.885Z,96140.38
2022-08-22T02:21:00.248Z,96140.34
2022-08-22T02:23:37.907Z,96133.34
2022-08-22T02:26:10.615Z,96140.97
2022-08-22T02:28:56.616Z,96142.59
2022-08-22T02:31:36.896Z,96152.69
2022-08-22T02:34:21.275Z,96151.66
2022-08-22T02:36:55.045Z,96145.53
2022-08-22T02:39:34.578Z,96148.28
2022-08-22T02:42:15.842Z,96146.22
2022-08-22T02:44:53.551Z,96144.59
2022-08-22T02:47:32.879Z,96132.28
2022-08-22T02:50:12.812Z,96141.66
2022-08-22T02:52:54.034Z,96147.56
2022-08-22T02:55:36.059Z,96145.00
2022-08-22T02:58:12.185Z,96149.50
2022-08-22T03:00:48.263Z,96140.28
2022-08-22T03:03:20.600Z,96141.75
2022-08-22T03:06:01.409Z,96143.16
2022-08-22T03:08:32.183Z,96137.75
2022-08-22T03:11:12.082Z,96137.19
2022-08-22T03:13:53.431Z,96130.78
2022-08-22T03:16:27.247Z,96133.34
2022-08-22T03:19:00.696Z,96134.66
2022-08-22T03:21:34.729Z,96145.88
2022-08-22T03:24:11.467Z,96143.69
2022-08-22T03:26:49.282Z,96141.91
2022-08-22T03:29:21.498Z,96141.41
2022-08-22T03:32:10.387Z,96138.59
2022-08-22T03:34:39.443Z,96138.97
2022-08-22T03:37:16.586Z,96143.09
2022-08-22T03:39:55.774Z,96142.84
2022-08-22T03:43:04.534Z,96139.44
2022-08-22T03:46:05.056Z,96142.69
2022-08-22T03:48:56.092Z,96137.34
2022-08-22T03:51:33.759Z,96141.84
2022-08-22T03:54:30.653Z,96140.00
2022-08-22T03:57:23.206Z,96142.00
2022-08-22T04:00:10.519Z,96141.94
2022-08-22T04:03:13.284Z,96135.97
2022-08-22T04:06:12.751Z,96143.41
2022-08-22T04:08:58.839Z,96147.72
2022-08-22T04:11:49.787Z,96146.50
2022-08-22T04:14:57.934Z,96155.59
2022-08-22T04:17:55.548Z,96151.06
2022-08-22T04:20:45.809Z,96156.56
2022-08-22T04:23:36.550Z,96148.25
2022-08-22T04:26:12.937Z,96148.56
2022-08-22T04:28:46.390Z,96153.06
2022-08-22T04:31:17.569Z,96157.50
2022-08-22T04:33:51.550Z,96163.88
2022-08-22T04:36:26.306Z,96159.78
2022-08-22T04:39:00.533Z,96164.50
2022-08-22T04:41:38.511Z,96160.50
2022-08-22T04:44:13.453Z,96161.53
2022-08-22T04:46:46.459Z,96164.06
2022-08-22T04:49:24.445Z,96163.44
2022-08-22T04:52:00.142Z,96166.69
2022-08-22T04:54:42.307Z,96163.66
2022-08-22T04:57:23.433Z,96160.47
2022-08-22T04:59:51.534Z,96167.31
2022-08-22T05:02:24.339Z,96164.31
2022-08-22T05:04:59.081Z,96164.88
2022-08-22T05:07:36.362Z,96166.31
2022-08-22T05:10:12.328Z,96168.94
2022-08-22T05:12:44.469Z,96166.13
2022-08-22T05:15:23.143Z,96167.03
2022-08-22T05:17:54.349Z,96169.28
2022-08-22T05:20:26.880Z,96169.94
2022-08-22T05:23:01.036Z,96162.13
2022-08-22T05:25:32.707Z,96159.59
2022-08-22T05:28:12.050Z,96163.56
2022-08-22T05:30:40.853Z,96165.25
2022-08-22T05:33:17.284Z,96160.28
2022-08-22T05:35:50.849Z,96160.94
2022-08-22T05:38:27.071Z,96158.13
2022-08-22T05:41:00.383Z,96157.19
2022-08-22T05:43:28.645Z,96166.28
2022-08-22T05:45:58.476Z,96168.06
2022-08-22T05:48:37.543Z,96158.69
2022-08-22T05:51:16.589Z,96171.84
2022-08-22T05:53:50.743Z,96171.78
2022-08-22T05:56:27.308Z,96172.31
2022-08-22T05:59:00.002Z,96171.72
2022-08-22T06:01:32.952Z,96173.34
2022-08-22T06:04:07.590Z,96181.66
2022-08-22T06:06:41.062Z,96177.53
2022-08-22T06:09:17.924Z,96172.59
2022-08-22T06:11:51.679Z,96177.81
2022-08-22T06:14:30.780Z,96174.13
2022-08-22T06:17:07.089Z,96180.94
2022-08-22T06:19:38.306Z,96180.16
2022-08-22T06:22:06.673Z,96184.53
2022-08-22T06:24:39.332Z,96178.84
2022-08-22T06:27:13.049Z,96180.78
2022-08-22T06:29:45.085Z,96180.41
2022-08-22T06:32:15.258Z,96189.38
2022-08-22T06:34:46.217Z,96182.75
2022-08-22T06:37:22.769Z,96181.91
2022-08-22T06:39:55.090Z,96180.88
2022-08-22T06:42:28.172Z,96187.66
2022-08-22T06:45:01.886Z,96190.56
2022-08-22T06:47:33.678Z,96190.50
2022-08-22T06:50:16.570Z,96193.41
2022-08-22T06:52:53.437Z,96191.63
2022-08-22T06:55:26.502Z,96190.66
2022-08-22T06:57:57.221Z,96189.84
2022-08-22T07:00:25.450Z,96183.25
2022-08-22T07:02:58.449Z,96186.03
2022-08-22T07:05:28.645Z,96186.09
2022-08-22T07:07:57.074Z,96188.19
2022-08-22T07:10:26.378Z,96186.25
2022-08-22T07:12:57.546Z,96193.31
2022-08-22T07:15:34.374Z,96192.00
2022-08-22T07:18:08.499Z,96196.19
2022-08-22T07:20:41.906Z,96203.28
2022-08-22T07:23:11.636Z,96206.28
2022-08-22T07:25:52.870Z,96209.16
2022-08-22T07:28:37.117Z,96210.63
2022-08-22T07:31:38.003Z,96202.59
2022-08-22T07:34:31.150Z,96202.75
2022-08-22T07:37:02.832Z,96196.19
2022-08-22T07:39:36.050Z,96199.06
2022-08-22T07:42:11.935Z,96194.97
2022-08-22T07:44:58.141Z,96194.53
2022-08-22T07:47:32.920Z,96207.00
2022-08-22T07:50:07.127Z,96194.09
2022-08-22T07:52:43.456Z,96197.03
2022-08-22T07:55:17.635Z,96191.25
2022-08-22T07:57:51.164Z,96186.09
2022-08-22T08:00:21.532Z,96185.50
2022-08-22T08:02:52.075Z,96189.66
2022-08-22T08:05:23.919Z,96190.75
2022-08-22T08:07:55.611Z,96192.97
2022-08-22T08:10:27.482Z,96186.41
2022-08-22T08:13:03.352Z,96192.91
2022-08-22T08:15:34.328Z,96182.41
2022-08-22T08:18:05.881Z,96186.25
2022-08-22T08:20:36.011Z,96192.53
2022-08-22T08:23:05.194Z,96187.09
2022-08-22T08:25:49.128Z,96182.81
2022-08-22T08:28:35.192Z,96194.09
2022-08-22T08:31:21.083Z,96185.78
2022-08-22T08:33:51.454Z,96190.44
2022-08-22T08:36:31.244Z,96186.56
2022-08-22T08:39:12.336Z,96181.56
2022-08-22T08:42:05.941Z,96170.69
2022-08-22T08:45:03.387Z,96172.97
2022-08-22T08:47:44.476Z,96173.38
2022-08-22T08:50:24.719Z,96173.25
2022-08-22T08:53:26.363Z,96174.47
2022-08-22T08:55:58.907Z,96178.66
2022-08-22T08:58:38.841Z,96181.19
2022-08-22T09:01:27.691Z,96170.81
2022-08-22T09:04:27.238Z,96178.63
2022-08-22T09:07:26.472Z,96175.66
2022-08-22T09:10:13.586Z,96175.97
2022-08-22T09:13:12.378Z,96175.97
2022-08-22T09:15:58.413Z,96175.59
2022-08-22T09:19:03.260Z,96184.31
2022-08-22T09:21:50.590Z,96180.03
2022-08-22T09:24:52.321Z,96183.28
2022-08-22T09:27:31.878Z,96179.75
2022-08-22T09:30:08.512Z,96176.16
2022-08-22T09:32:46.843Z,96170.56
2022-08-22T09:35:26.674Z,96180.94
2022-08-22T09:38:36.906Z,96179.25
2022-08-22T09:41:22.114Z,96186.75
2022-08-22T09:44:02.845Z,96179.56
2022-08-22T09:46:36.704Z,96182.06
2022-08-22T09:49:10.343Z,96178.59
2022-08-22T09:51:46.255Z,96181.06
2022-08-22T09:54:31.691Z,96191.66
2022-08-22T09:57:13.859Z,96189.63
2022-08-22T09:59:52.732Z,96193.25
2022-08-22T10:02:31.750Z,96191.78
2022-08-22T10:05:12.321Z,96189.66
2022-08-22T10:08:13.787Z,96197.72
2022-08-22T10:10:54.766Z,96189.53
2022-08-22T10:13:37.215Z,96192.91
2022-08-22T10:16:20.378Z,96198.63
2022-08-22T10:18:54.766Z,96202.06
2022-08-22T10:21:35.298Z,96183.50
2022-08-22T10:24:25.095Z,96181.13
2022-08-22T10:26:57.329Z,96185.00
2022-08-22T10:29:45.343Z,96185.59
2022-08-22T10:32:27.380Z,96195.50
2022-08-22T10:34:58.539Z,96198.47
2022-08-22T10:37:33.080Z,96195.81
2022-08-22T10:40:08.809Z,96193.91
2022-08-22T10:42:40.036Z,96188.16
2022-08-22T10:45:23.766Z,96189.25
2022-08-22T10:48:42.344Z,96186.09
2022-08-22T10:51:19.890Z,96188.16
2022-08-22T10:54:00.026Z,96188.28
2022-08-22T10:56:35.886Z,96191.59
2022-08-22T10:59:13.878Z,96195.66
2022-08-22T11:01:51.086Z,96198.53
2022-08-22T11:04:33.415Z,96177.63
2022-08-22T11:07:15.574Z,96182.78
2022-08-22T11:09:44.458Z,96183.84
2022-08-22T11:12:22.159Z,96186.59
2022-08-22T11:15:07.860Z,96190.47
2022-08-22T11:18:06.171Z,96183.59
2022-08-22T11:20:51.507Z,96187.13
2022-08-22T11:23:30.643Z,96190.00
2022-08-22T11:26:06.848Z,96193.84
2022-08-22T11:29:07.857Z,96188.97
2022-08-22T11:31:51.585Z,96195.06
2022-08-22T11:34:36.516Z,96182.25
2022-08-22T11:37:11.521Z,96189.31
2022-08-22T11:39:45.191Z,96201.03
2022-08-22T11:42:21.977Z,96184.16
2022-08-22T11:44:55.537Z,96181.03
2022-08-22T11:47:30.000Z,96193.06
2022-08-22T11:50:13.351Z,96194.63
2022-08-22T11:53:07.662Z,96186.38
2022-08-22T11:55:39.473Z,96183.69
2022-08-22T11:58:20.900Z,96184.00
2022-08-22T12:00:56.352Z,96181.53
2022-08-22T12:03:44.178Z,96172.13
2022-08-22T12:06:34.680Z,96173.56
2022-08-22T12:09:20.297Z,96160.22
2022-08-22T12:12:07.380Z,96153.50
2022-08-22T12:14:43.064Z,96159.47
2022-08-22T12:17:55.916Z,96154.47
2022-08-22T12:20:55.599Z,96154.16
2022-08-22T12:23:48.799Z,96160.06
2022-08-22T12:26:28.991Z,96150.16
2022-08-22T12:29:15.496Z,96142.09
2022-08-22T12:32:13.572Z,96142.25
2022-08-22T12:34:57.827Z,96137.59
2022-08-22T12:37:35.646Z,96132.81
2022-08-22T12:40:29.213Z,96127.81
2022-08-22T12:43:15.758Z,96133.66
2022-08-22T12:46:05.442Z,96129.63
2022-08-22T12:48:52.045Z,96118.06
2022-08-22T12:51:29.856Z,96118.66
2022-08-22T12:54:17.903Z,96117.38
2022-08-22T12:56:58.011Z,96117.16
2022-08-22T12:59:30.528Z,96120.09
2022-08-22T13:02:02.747Z,96113.03
2022-08-22T13:04:34.251Z,96106.53
2022-08-22T13:07:22.828Z,96097.97
2022-08-22T13:09:53.460Z,96099.34
2022-08-22T13:12:26.671Z,96099.06
2022-08-22T13:15:00.181Z,96099.34
2022-08-22T13:17:28.967Z,96099.34
2022-08-22T13:20:02.947Z,96097.06
2022-08-22T13:22:35.832Z,96084.56
2022-08-22T13:25:09.547Z,96093.69
2022-08-22T13:27:51.058Z,96102.03
2022-08-22T13:30:22.263Z,96093.09
2022-08-22T13:32:53.230Z,96094.81
2022-08-22T13:35:25.606Z,96086.66
2022-08-22T13:38:04.403Z,96092.50
2022-08-22T13:40:33.852Z,96089.44
2022-08-22T13:43:06.158Z,96092.75
2022-08-22T13:45:36.319Z,96085.72
2022-08-22T13:48:11.350Z,96088.56
2022-08-22T13:50:57.133Z,96094.00
2022-08-22T13:53:33.101Z,96086.66
2022-08-22T13:56:07.138Z,96093.19
2022-08-22T13:58:46.325Z,96095.00
2022-08-22T14:01:41.736Z,96092.78
2022-08-22T14:04:26.678Z,96088.25
2022-08-22T14:07:23.907Z,96086.16
2022-08-22T14:09:57.716Z,96090.88
2022-08-22T14:12:32.350Z,96087.88
2022-08-22T14:15:03.343Z,96099.50
2022-08-22T14:17:37.496Z,96090.09
2022-08-22T14:20:14.145Z,96092.72
2022-08-22T14:23:04.710Z,96096.31
2022-08-22T14:25:39.862Z,96101.94
2022-08-22T14:28:09.743Z,96098.09
2022-08-22T14:30:58.271Z,96085.59
2022-08-22T14:33:33.168Z,96083.72
2022-08-22T14:36:04.507Z,96091.44
2022-08-22T14:38:38.496Z,96086.66
2022-08-22T14:41:14.114Z,96089.25
2022-08-22T14:43:52.484Z,96089.06
2022-08-22T14:46:27.702Z,96091.81
2022-08-22T14:49:28.809Z,96089.78
2022-08-22T14:52:02.608Z,96089.13
2022-08-22T14:54:31.475Z,96078.38
2022-08-22T14:57:02.840Z,96080.66
2022-08-22T14:59:40.827Z,96072.34
2022-08-22T15:02:13.797Z,96086.22
2022-08-22T15:04:43.994Z,96083.28
2022-08-22T15:07:21.260Z,96077.34
2022-08-22T15:09:53.379Z,96073.91
2022-08-22T15:12:28.590Z,96079.00
2022-08-22T15:14:59.207Z,96076.38
2022-08-22T15:17:44.290Z,96076.44
2022-08-22T15:20:28.478Z,96075.09
2022-08-22T15:22:59.636Z,96079.16
2022-08-22T15:25:31.894Z,96072.06
2022-08-22T15:28:06.558Z,96069.75
2022-08-22T15:30:38.233Z,96070.59
2022-08-22T15:33:18.833Z,96068.59
2022-08-22T15:35:48.127Z,96073.66
2022-08-22T15:38:31.007Z,96071.38
2022-08-22T15:41:38.920Z,96075.09
2022-08-22T15:44:15.137Z,96068.69
2022-08-22T15:47:03.720Z,96070.59
2022-08-22T15:49:33.282Z,96074.78
2022-08-22T15:52:21.706Z,96074.00
2022-08-22T15:55:18.376Z,96068.50
2022-08-22T15:58:06.081Z,96076.41
2022-08-22T16:00:43.369Z,96068.19
2022-08-22T16:03:14.696Z,96065.47
2022-08-22T16:05:55.407Z,96072.03
2022-08-22T16:08:33.029Z,96075.91
2022-08-22T16:11:30.954Z,96091.66
2022-08-22T16:14:21.562Z,96083.53
2022-08-22T16:17:01.558Z,96079.72
2022-08-22T16:19:30.147Z,96085.88
2022-08-22T16:22:10.704Z,96097.56
2022-08-22T16:25:05.408Z,96096.38
2022-08-22T16:27:33.959Z,96096.84
2022-08-22T16:30:15.399Z,96096.69
2022-08-22T16:32:56.285Z,96095.47
2022-08-22T16:36:01.560Z,96095.06
2022-08-22T16:38:37.516Z,96099.44
2022-08-22T16:41:05.449Z,96104.03
2022-08-22T16:43:33.581Z,96101.72
2022-08-22T16:46:02.279Z,96101.63
2022-08-22T16:48:39.405Z,96101.25
2022-08-22T16:51:12.925Z,96097.28
2022-08-22T16:54:03.370Z,96103.06
2022-08-22T16:56:37.988Z,96112.13
2022-08-22T16:59:24.003Z,96110.72
2022-08-22T17:02:14.904Z,96102.81
2022-08-22T17:04:54.775Z,96107.25
2022-08-22T17:07:33.004Z,96099.84
2022-08-22T17:10:17.398Z,96110.69
2022-08-22T17:12:58.728Z,96116.34
2022-08-22T17:15:34.774Z,96117.25
2022-08-22T17:18:44.127Z,96114.97
2022-08-22T17:21:25.627Z,96116.13
2022-08-22T17:24:01.450Z,96113.91
2022-08-22T17:26:45.844Z,96130.75
2022-08-22T17:29:19.561Z,96120.75
2022-08-22T17:31:54.343Z,96117.59
2022-08-22T17:34:33.470Z,96129.72
2022-08-22T17:37:09.592Z,96128.59
2022-08-22T17:40:03.024Z,96129.41
2022-08-22T17:42:48.778Z,96125.53
2022-08-22T17:45:27.551Z,96130.06
2022-08-22T17:48:03.743Z,96128.75
2022-08-22T17:50:35.772Z,96134.75
2022-08-22T17:53:10.027Z,96140.59
2022-08-22T17:55:53.126Z,96136.16
2022-08-22T17:58:35.707Z,96132.19
2022-08-22T18:01:15.562Z,96134.16
2022-08-22T18:03:50.197Z,96133.75
2022-08-22T18:06:22.230Z,96141.16
2022-08-22T18:11:49.410Z,96134.94
2022-08-22T18:14:28.317Z,96145.84
2022-08-22T18:16:59.039Z,96145.56
2022-08-22T18:19:40.830Z,96151.44
2022-08-22T18:22:12.798Z,96153.03
2022-08-22T18:24:52.114Z,96146.00
2022-08-22T18:27:34.131Z,96142.97
2022-08-22T18:30:15.051Z,96152.84
2022-08-22T18:32:50.131Z,96151.69
2022-08-22T18:35:25.163Z,96150.59
2022-08-22T18:38:01.564Z,96162.66
2022-08-22T18:40:46.895Z,96160.22
2022-08-22T18:43:23.842Z,96164.56
2022-08-22T18:46:03.359Z,96163.41
2022-08-22T18:48:54.330Z,96177.84
2022-08-22T18:51:30.805Z,96173.81
2022-08-22T18:54:24.487Z,96181.59
2022-08-22T18:56:59.952Z,96184.78
2022-08-22T18:59:42.746Z,96182.19
2022-08-22T19:02:28.172Z,96177.31
2022-08-22T19:05:20.937Z,96182.78
2022-08-22T19:08:03.436Z,96184.34
2022-08-22T19:11:08.716Z,96182.63
2022-08-22T19:13:51.167Z,96188.59
2022-08-22T19:16:44.764Z,96189.34
2022-08-22T19:19:17.513Z,96181.56
2022-08-22T19:22:22.346Z,96188.25
2022-08-22T19:25:13.948Z,96192.28
2022-08-22T19:27:45.446Z,96198.88
2022-08-22T19:30:43.656Z,96198.31
2022-08-22T19:33:13.637Z,96196.31
2022-08-22T19:36:06.218Z,96203.34
2022-08-22T19:38:56.651Z,96197.53
2022-08-22T19:41:43.986Z,96199.22
2022-08-22T19:44:31.200Z,96194.16
2022-08-22T19:47:08.125Z,96198.38
2022-08-22T19:49:38.124Z,96199.03
2022-08-22T19:52:20.770Z,96202.06
2022-08-22T19:54:57.599Z,96208.38
2022-08-22T19:57:35.797Z,96207.13
2022-08-22T20:00:10.705Z,96202.19
2022-08-22T20:02:56.434Z,96208.00
2022-08-22T20:05:31.477Z,96207.56
2022-08-22T20:08:17.462Z,96200.88
2022-08-22T20:10:58.575Z,96199.38
2022-08-22T20:13:29.140Z,96198.41
2022-08-22T20:16:16.111Z,96194.94
2022-08-22T20:19:06.545Z,96197.03
2022-08-22T20:21:40.630Z,96193.78
2022-08-22T20:24:12.121Z,96200.84
2022-08-22T20:26:57.594Z,96197.19
2022-08-22T20:29:32.468Z,96193.22
2022-08-22T20:32:01.387Z,96198.94
2022-08-22T20:34:37.386Z,96200.13
2022-08-22T20:37:27.214Z,96205.50
2022-08-22T20:40:00.499Z,96203.56
2022-08-22T20:42:32.649Z,96201.00
2022-08-22T20:45:02.208Z,96199.19
2022-08-22T20:47:41.851Z,96194.34
2022-08-22T20:50:13.472Z,96194.72
2022-08-22T20:52:54.207Z,96192.31
2022-08-22T20:55:25.962Z,96204.41
2022-08-22T20:58:03.398Z,96196.19
2022-08-22T21:00:34.135Z,96192.44
2022-08-22T21:03:06.359Z,96195.97
2022-08-22T21:05:38.958Z,96193.03
2022-08-22T21:08:09.363Z,96187.94
2022-08-22T21:11:05.866Z,96189.00
2022-08-22T21:13:35.730Z,96197.53
2022-08-22T21:16:13.915Z,96194.88
2022-08-22T21:18:43.340Z,96188.34
2022-08-22T21:21:20.486Z,96188.13
2022-08-22T21:23:51.200Z,96184.22
2022-08-22T21:26:25.314Z,96185.47
2022-08-22T21:28:59.920Z,96188.41
2022-08-22T21:31:31.106Z,96187.00
2022-08-22T21:33:59.030Z,96181.44
2022-08-22T21:36:31.131Z,96185.59
2022-08-22T21:39:03.541Z,96174.91
2022-08-22T21:41:37.904Z,96181.09
2022-08-22T21:44:19.780Z,96187.34
2022-08-22T21:46:47.328Z,96181.38
2022-08-22T21:49:23.986Z,96180.34
2022-08-22T21:51:52.900Z,96185.78
2022-08-22T21:54:39.490Z,96201.09
2022-08-22T21:57:35.315Z,96189.94
2022-08-22T22:00:07.291Z,96192.41
2022-08-22T22:02:39.709Z,96185.00
2022-08-22T22:05:11.420Z,96182.75
2022-08-22T22:07:42.650Z,96183.34
2022-08-22T22:10:14.543Z,96179.25
2022-08-22T22:12:43.612Z,96184.63
2022-08-22T22:15:14.846Z,96182.78
2022-08-22T22:17:42.324Z,96174.31
2022-08-22T22:20:10.699Z,96186.69
2022-08-22T22:22:46.245Z,96184.00
2022-08-22T22:25:40.915Z,96188.59
2022-08-22T22:28:06.080Z,96192.91
2022-08-22T22:30:33.770Z,96197.47
2022-08-22T22:33:01.266Z,96196.66
2022-08-22T22:35:28.857Z,96188.97
2022-08-22T22:37:57.920Z,96191.66
2022-08-22T22:40:26.066Z,96195.63
2022-08-22T22:42:53.631Z,96190.66
2022-08-22T22:45:21.136Z,96188.81
2022-08-22T22:47:48.674Z,96187.56
2022-08-22T22:50:16.270Z,96191.72
2022-08-22T22:52:43.851Z,96183.44
2022-08-22T22:55:13.142Z,96192.72
2022-08-22T22:57:58.962Z,96196.19
2022-08-22T23:00:31.046Z,96193.31
2022-08-22T23:02:59.647Z,96193.31
2022-08-22T23:05:27.148Z,96190.22
2022-08-22T23:07:54.665Z,96186.28
2022-08-22T23:10:23.535Z,96190.00
2022-08-22T23:12:51.015Z,96191.63
2022-08-22T23:15:18.474Z,96191.00
2022-08-22T23:17:45.991Z,96190.78
2022-08-22T23:20:14.078Z,96189.34
2022-08-22T23:22:42.850Z,96191.81
2022-08-22T23:25:10.516Z,96192.59
2022-08-22T23:27:39.715Z,96194.03
2022-08-22T23:30:10.408Z,96188.69
2022-08-22T23:32:38.710Z,96189.06
2022-08-22T23:35:07.915Z,96186.56
2022-08-22T23:37:35.463Z,96187.34
2022-08-22T23:40:03.682Z,96180.75
2022-08-22T23:42:31.218Z,96183.25
2022-08-22T23:45:00.099Z,96177.06
2022-08-22T23:47:27.595Z,96176.31
2022-08-22T23:49:55.075Z,96182.31
2022-08-22T23:52:22.560Z,96182.09
2022-08-22T23:54:54.336Z,96189.34
2022-08-22T23:57:26.406Z,96181.84
2022-08-22T23:59:57.662Z,96174.63
